Time;durP1;ratioP1;P1;durP2;ratioP2;P2;SDS_P1;SDS_P2;PMS_P1;PMS_P2;Temp;Humidity;BMP_temperature;BMP_pressure;BME280_temperature;BME280_humidity;BME280_pressure;Samples;Min_cycle;Max_cycle;Signal;HPM_P1;HPM_P2
2022/12/24 00:01:43;;;;;;;4.40;2.50;;;;;;;;;;4869902;29;20073;-76
2022/12/24 00:04:10;;;;;;;6.15;2.47;;;;;;;;;;4889333;29;20104;-75
2022/12/24 00:06:38;;;;;;;7.72;2.78;;;;;;;;;;4876755;29;20527;-75
2022/12/24 00:09:05;;;;;;;10.80;3.38;;;;;;;;;;4892918;29;20052;-75
2022/12/24 00:11:32;;;;;;;3.97;3.45;;;;;;;;;;4877371;29;20052;-76
2022/12/24 00:14:00;;;;;;;9.73;4.28;;;;;;;;;;4892560;29;20049;-75
2022/12/24 00:16:27;;;;;;;6.88;3.40;;;;;;;;;;4892675;29;20055;-75
2022/12/24 00:18:54;;;;;;;11.68;3.40;;;;;;;;;;4890867;29;20048;-75
2022/12/24 00:21:22;;;;;;;3.05;2.60;;;;;;;;;;4894337;29;20505;-75
2022/12/24 00:23:49;;;;;;;10.30;2.90;;;;;;;;;;4890292;29;20585;-75
2022/12/24 00:26:16;;;;;;;3.00;2.03;;;;;;;;;;4893929;29;20064;-75
2022/12/24 00:28:44;;;;;;;5.50;2.40;;;;;;;;;;4875096;29;20044;-75
2022/12/24 00:31:12;;;;;;;6.22;2.17;;;;;;;;;;4894653;23;20488;-74
2022/12/24 00:33:40;;;;;;;4.85;1.80;;;;;;;;;;4838640;29;20045;-74
2022/12/24 00:36:08;;;;;;;3.75;1.40;;;;;;;;;;4854442;29;20141;-74
2022/12/24 00:38:35;;;;;;;2.10;1.27;;;;;;;;;;4854271;29;20042;-74
2022/12/24 00:41:04;;;;;;;1.30;1.10;;;;;;;;;;4839393;29;20422;-74
2022/12/24 00:43:31;;;;;;;2.63;1.20;;;;;;;;;;4837691;29;20451;-74
2022/12/24 00:45:59;;;;;;;0.60;0.60;;;;;;;;;;4838161;29;20053;-74
2022/12/24 00:48:26;;;;;;;1.58;0.85;;;;;;;;;;4855852;29;20078;-74
2022/12/24 00:50:54;;;;;;;1.40;0.77;;;;;;;;;;4853366;29;20116;-74
2022/12/24 00:53:21;;;;;;;1.10;0.70;;;;;;;;;;4840219;29;20073;-74
2022/12/24 00:55:48;;;;;;;2.47;0.95;;;;;;;;;;4854350;29;20133;-74
2022/12/24 00:58:16;;;;;;;1.35;0.68;;;;;;;;;;4836805;29;20041;-74
2022/12/24 01:00:43;;;;;;;1.05;0.98;;;;;;;;;;4821940;29;20386;-74
2022/12/24 01:03:10;;;;;;;3.55;0.70;;;;;;;;;;4837801;29;20063;-74
2022/12/24 01:05:38;;;;;;;1.67;1.00;;;;;;;;;;4856716;29;20041;-74
2022/12/24 01:08:05;;;;;;;0.90;0.90;;;;;;;;;;4852257;29;20046;-74
2022/12/24 01:10:32;;;;;;;5.47;1.02;;;;;;;;;;4839026;29;20054;-74
2022/12/24 01:13:03;;;;;;;2.70;0.90;;;;;;;;;;4854542;29;20054;-74
2022/12/24 01:15:30;;;;;;;4.40;1.02;;;;;;;;;;4853091;29;20144;-74
2022/12/24 01:17:58;;;;;;;0.60;0.60;;;;;;;;;;4854468;29;20057;-74
2022/12/24 01:20:30;;;;;;;2.47;0.88;;;;;;;;;;4853929;29;20410;-74
2022/12/24 01:22:57;;;;;;;1.80;0.80;;;;;;;;;;4866012;29;20060;-74
2022/12/24 01:25:25;;;;;;;1.55;0.70;;;;;;;;;;4838010;29;20050;-74
2022/12/24 01:27:52;;;;;;;3.60;0.80;;;;;;;;;;4838018;29;20126;-73
2022/12/24 01:30:20;;;;;;;3.22;1.02;;;;;;;;;;4853002;29;20713;-73
2022/12/24 01:32:47;;;;;;;3.47;0.93;;;;;;;;;;4853790;29;20517;-73
2022/12/24 01:35:14;;;;;;;1.60;0.80;;;;;;;;;;4854474;29;20049;-74
2022/12/24 01:37:43;;;;;;;4.00;1.00;;;;;;;;;;4854541;29;20140;-74
2022/12/24 01:45:47;;;;;;;81.25;75.57;;;;;;;;;;4834188;29;20585;-76
2022/12/24 01:48:18;;;;;;;27.13;24.92;;;;;;;;;;4822850;29;20521;-75
2022/12/24 01:50:45;;;;;;;1.55;0.60;;;;;;;;;;4851580;29;20037;-76
2022/12/24 01:53:13;;;;;;;1.35;0.60;;;;;;;;;;4837661;29;20045;-76
2022/12/24 01:55:41;;;;;;;0.50;0.50;;;;;;;;;;4853338;29;20049;-74
2022/12/24 01:58:10;;;;;;;19.58;17.48;;;;;;;;;;4851669;29;20053;-74
2022/12/24 02:00:37;;;;;;;1.27;0.68;;;;;;;;;;4851893;29;20044;-75
2022/12/24 02:03:04;;;;;;;68.43;63.25;;;;;;;;;;4853463;29;20498;-75
2022/12/24 02:05:43;;;;;;;2.53;0.60;;;;;;;;;;4852558;29;20052;-76
2022/12/24 02:08:10;;;;;;;1.65;0.55;;;;;;;;;;4836685;29;20047;-75
2022/12/24 02:10:38;;;;;;;1.10;0.50;;;;;;;;;;4854208;29;20134;-75
2022/12/24 02:13:05;;;;;;;5.60;0.70;;;;;;;;;;4852515;29;20053;-75
2022/12/24 02:15:44;;;;;;;2.50;0.70;;;;;;;;;;4849898;29;20053;-75
2022/12/24 02:18:20;;;;;;;2.15;0.60;;;;;;;;;;4860273;29;20045;-75
2022/12/24 02:21:06;;;;;;;2.17;0.70;;;;;;;;;;4848291;29;20041;-75
2022/12/24 02:23:52;;;;;;;5.95;0.77;;;;;;;;;;4834646;29;20494;-75
2022/12/24 02:26:25;;;;;;;5.30;0.77;;;;;;;;;;4838108;29;20130;-75
2022/12/24 02:29:12;;;;;;;3.70;0.70;;;;;;;;;;4846980;29;20132;-75
2022/12/24 02:31:45;;;;;;;3.97;1.17;;;;;;;;;;4852160;29;20065;-75
2022/12/24 02:34:19;;;;;;;3.53;0.80;;;;;;;;;;4836827;29;20136;-75
2022/12/24 02:36:49;;;;;;;1.63;0.60;;;;;;;;;;4837855;29;20041;-75
2022/12/24 02:39:40;;;;;;;0.55;0.55;;;;;;;;;;4857667;29;20049;-74
2022/12/24 02:42:08;;;;;;;6.05;1.00;;;;;;;;;;4850549;29;20072;-75
2022/12/24 02:44:51;;;;;;;0.65;0.60;;;;;;;;;;4838650;29;20049;-75
2022/12/24 02:47:21;;;;;;;0.95;0.63;;;;;;;;;;4865542;29;20064;-75
2022/12/24 02:49:48;;;;;;;4.50;0.88;;;;;;;;;;4841951;29;20045;-75
2022/12/24 02:52:27;;;;;;;0.93;0.90;;;;;;;;;;4860251;29;20471;-74
2022/12/24 02:54:55;;;;;;;4.53;0.93;;;;;;;;;;4858494;29;20133;-74
2022/12/24 02:57:28;;;;;;;2.65;0.90;;;;;;;;;;4856741;29;20061;-75
2022/12/24 03:00:00;;;;;;;2.70;1.08;;;;;;;;;;4852922;29;20291;-74
2022/12/24 03:02:47;;;;;;;1.23;0.95;;;;;;;;;;4833698;29;20045;-74
2022/12/24 03:05:15;;;;;;;3.22;1.20;;;;;;;;;;4831208;29;20053;-74
2022/12/24 03:07:51;;;;;;;0.98;0.77;;;;;;;;;;4835434;29;20044;-76
2022/12/24 03:10:26;;;;;;;1.45;0.82;;;;;;;;;;4836195;29;20129;-76
2022/12/24 03:12:55;;;;;;;0.70;0.70;;;;;;;;;;4851014;29;20506;-77
2022/12/24 03:15:24;;;;;;;1.27;0.60;;;;;;;;;;4851004;29;20046;-76
2022/12/24 03:17:52;;;;;;;5.15;4.72;;;;;;;;;;4834356;29;20041;-77
2022/12/24 03:20:22;;;;;;;67.80;62.67;;;;;;;;;;4850559;29;20618;-76
2022/12/24 03:22:49;;;;;;;5.78;2.35;;;;;;;;;;4852710;29;20037;-76
2022/12/24 03:25:17;;;;;;;47.08;43.65;;;;;;;;;;4851226;29;20056;-77
2022/12/24 03:27:44;;;;;;;8.98;1.13;;;;;;;;;;4853236;29;20081;-77
2022/12/24 03:30:13;;;;;;;0.82;0.50;;;;;;;;;;4834054;29;20049;-76
2022/12/24 03:32:40;;;;;;;1.92;0.60;;;;;;;;;;4836058;29;20065;-77
2022/12/24 03:35:08;;;;;;;5.18;1.05;;;;;;;;;;4848887;29;20060;-77
2022/12/24 03:37:35;;;;;;;2.53;0.73;;;;;;;;;;4836169;29;20075;-77
2022/12/24 03:40:04;;;;;;;3.30;0.82;;;;;;;;;;4838703;29;20152;-77
2022/12/24 03:42:31;;;;;;;3.72;1.10;;;;;;;;;;4839540;29;20050;-76
2022/12/24 03:44:58;;;;;;;6.25;0.85;;;;;;;;;;4838407;29;20041;-76
2022/12/24 03:47:26;;;;;;;3.63;0.98;;;;;;;;;;4838072;29;20049;-77
2022/12/24 03:49:53;;;;;;;2.08;0.70;;;;;;;;;;4855629;29;20053;-77
2022/12/24 03:52:21;;;;;;;7.75;1.10;;;;;;;;;;4837471;29;20045;-77
2022/12/24 03:54:48;;;;;;;5.18;0.80;;;;;;;;;;4838505;29;20053;-78
2022/12/24 03:57:15;;;;;;;7.72;1.10;;;;;;;;;;4836358;29;20593;-77
2022/12/24 03:59:43;;;;;;;6.88;1.20;;;;;;;;;;4838004;29;20053;-78
2022/12/24 04:02:10;;;;;;;4.13;0.90;;;;;;;;;;4854743;29;20830;-77
2022/12/24 04:04:38;;;;;;;3.03;0.82;;;;;;;;;;4839608;29;20084;-78
2022/12/24 04:07:06;;;;;;;4.38;1.00;;;;;;;;;;4854572;29;20477;-77
2022/12/24 04:09:33;;;;;;;4.97;1.40;;;;;;;;;;4836252;29;20140;-78
2022/12/24 04:12:00;;;;;;;4.10;0.85;;;;;;;;;;4822917;29;20132;-77
2022/12/24 04:14:28;;;;;;;3.88;1.10;;;;;;;;;;4848821;29;20073;-77
2022/12/24 04:16:55;;;;;;;4.07;1.10;;;;;;;;;;4854441;29;20046;-77
2022/12/24 04:19:23;;;;;;;6.03;1.02;;;;;;;;;;4855762;29;20084;-77
2022/12/24 04:21:50;;;;;;;2.35;1.10;;;;;;;;;;4854848;29;20065;-77
2022/12/24 04:24:17;;;;;;;2.90;1.08;;;;;;;;;;4851411;29;20049;-77
2022/12/24 04:26:45;;;;;;;6.93;1.40;;;;;;;;;;4852954;29;20506;-77
2022/12/24 04:29:12;;;;;;;5.55;1.02;;;;;;;;;;4837205;29;20048;-77
2022/12/24 04:31:40;;;;;;;9.60;1.00;;;;;;;;;;4854405;29;20061;-77
2022/12/24 04:34:07;;;;;;;2.65;1.10;;;;;;;;;;4837362;29;20140;-77
2022/12/24 04:36:34;;;;;;;3.38;0.90;;;;;;;;;;4838492;29;20141;-77
2022/12/24 04:39:02;;;;;;;7.18;0.90;;;;;;;;;;4853887;29;20046;-77
2022/12/24 04:41:30;;;;;;;3.53;0.90;;;;;;;;;;4853364;29;20050;-77
2022/12/24 04:43:58;;;;;;;2.92;1.40;;;;;;;;;;4851051;29;20048;-76
2022/12/24 04:46:26;;;;;;;3.33;1.10;;;;;;;;;;4837558;29;20069;-76
2022/12/24 04:48:54;;;;;;;6.30;1.00;;;;;;;;;;4854668;29;20410;-77
2022/12/24 04:51:22;;;;;;;8.73;1.60;;;;;;;;;;4856121;29;20049;-77
2022/12/24 04:53:49;;;;;;;2.72;1.70;;;;;;;;;;4870688;29;20049;-76
2022/12/24 04:56:18;;;;;;;6.60;3.05;;;;;;;;;;4857817;29;20049;-76
2022/12/24 04:58:45;;;;;;;4.32;1.55;;;;;;;;;;4855172;29;21493;-76
2022/12/24 05:01:15;;;;;;;8.40;1.55;;;;;;;;;;4853667;29;20045;-76
2022/12/24 05:03:43;;;;;;;5.03;1.25;;;;;;;;;;4836463;29;20054;-76
2022/12/24 05:06:13;;;;;;;5.75;1.30;;;;;;;;;;4854167;29;20080;-76
2022/12/24 05:08:40;;;;;;;6.07;1.05;;;;;;;;;;4852275;29;20474;-76
2022/12/24 05:11:08;;;;;;;9.70;1.33;;;;;;;;;;4852820;29;20049;-76
2022/12/24 05:13:35;;;;;;;4.30;1.40;;;;;;;;;;4834679;29;20050;-77
2022/12/24 05:16:13;;;;;;;5.10;1.17;;;;;;;;;;4833668;29;20061;-76
2022/12/24 05:18:41;;;;;;;3.65;1.33;;;;;;;;;;4835702;29;20041;-76
2022/12/24 05:21:13;;;;;;;3.40;1.45;;;;;;;;;;4820819;29;20137;-76
2022/12/24 05:26:33;;;;;;;10.27;1.80;;;;;;;;;;4853294;29;20558;-76
2022/12/24 05:29:01;;;;;;;4.88;1.55;;;;;;;;;;4821462;29;20133;-76
2022/12/24 05:31:29;;;;;;;3.97;1.20;;;;;;;;;;4852613;29;20064;-76
2022/12/24 05:33:56;;;;;;;4.45;1.20;;;;;;;;;;4849529;29;20128;-76
2022/12/24 05:36:24;;;;;;;7.07;1.48;;;;;;;;;;4835480;29;20153;-76
2022/12/24 05:38:51;;;;;;;6.65;1.40;;;;;;;;;;4837043;29;20064;-76
2022/12/24 05:41:19;;;;;;;13.60;2.08;;;;;;;;;;4818454;29;20063;-76
2022/12/24 05:43:46;;;;;;;6.20;2.20;;;;;;;;;;4852501;29;20098;-76
2022/12/24 05:46:15;;;;;;;6.95;1.98;;;;;;;;;;4849001;29;20087;-76
2022/12/24 05:48:42;;;;;;;10.70;2.00;;;;;;;;;;4857419;29;20108;-76
2022/12/24 05:51:12;;;;;;;5.13;1.98;;;;;;;;;;4852951;29;20046;-76
2022/12/24 05:53:39;;;;;;;8.77;2.33;;;;;;;;;;4844529;29;20046;-76
2022/12/24 05:56:11;;;;;;;7.25;2.10;;;;;;;;;;4859703;29;20051;-76
2022/12/24 05:58:39;;;;;;;;;;;;;;;;;;4822753;29;20057;-76
2022/12/24 06:01:06;;;;;;;17.30;1.92;;;;;;;;;;4851651;29;20404;-76
2022/12/24 06:03:34;;;;;;;7.43;1.98;;;;;;;;;;4853032;29;20102;-76
2022/12/24 06:06:02;;;;;;;2.72;1.15;;;;;;;;;;4832904;29;20048;-76
2022/12/24 06:08:30;;;;;;;5.78;1.30;;;;;;;;;;4822139;29;20052;-76
2022/12/24 06:10:59;;;;;;;9.35;1.83;;;;;;;;;;4850049;29;20061;-76
2022/12/24 06:13:27;;;;;;;6.70;1.50;;;;;;;;;;4835883;29;20061;-76
2022/12/24 06:15:55;;;;;;;2.85;1.42;;;;;;;;;;4833331;29;20106;-76
2022/12/24 06:18:23;;;;;;;4.43;1.80;;;;;;;;;;4835482;29;20176;-75
2022/12/24 06:20:54;;;;;;;4.40;2.00;;;;;;;;;;4834258;29;20049;-76
2022/12/24 06:23:21;;;;;;;5.93;1.73;;;;;;;;;;4852274;29;20044;-75
2022/12/24 06:25:49;;;;;;;4.57;1.88;;;;;;;;;;4852507;29;20128;-75
2022/12/24 06:28:17;;;;;;;7.90;2.35;;;;;;;;;;4852805;29;20116;-75
2022/12/24 06:30:49;;;;;;;9.13;3.47;;;;;;;;;;4879015;23;20130;-76
2022/12/24 06:33:17;;;;;;;10.32;3.95;;;;;;;;;;4874306;29;20063;-75
2022/12/24 06:35:45;;;;;;;8.25;2.55;;;;;;;;;;4854082;29;20047;-75
2022/12/24 06:38:12;;;;;;;6.40;1.98;;;;;;;;;;4870454;29;20045;-76
2022/12/24 06:40:41;;;;;;;4.63;2.05;;;;;;;;;;4870707;29;20048;-76
2022/12/24 06:43:08;;;;;;;5.80;2.45;;;;;;;;;;4872613;29;20041;-76
2022/12/24 06:45:36;;;;;;;7.28;2.35;;;;;;;;;;4871408;29;20044;-76
2022/12/24 06:48:04;;;;;;;10.48;3.03;;;;;;;;;;4872841;29;20078;-76
2022/12/24 06:50:34;;;;;;;4.75;2.63;;;;;;;;;;4849468;29;20398;-76
2022/12/24 06:53:02;;;;;;;9.85;2.78;;;;;;;;;;4873092;29;20501;-76
2022/12/24 06:55:29;;;;;;;12.48;3.10;;;;;;;;;;4866985;29;20429;-76
2022/12/24 06:57:56;;;;;;;14.43;3.88;;;;;;;;;;4854549;29;20037;-75
2022/12/24 07:00:24;;;;;;;21.15;5.82;;;;;;;;;;4869026;29;20055;-75
2022/12/24 07:02:51;;;;;;;17.33;5.03;;;;;;;;;;4836536;29;20043;-76
2022/12/24 07:05:19;;;;;;;13.55;6.30;;;;;;;;;;4837769;29;20739;-76
2022/12/24 07:07:46;;;;;;;13.43;5.90;;;;;;;;;;4865902;29;20131;-76
2022/12/24 07:10:14;;;;;;;12.73;6.30;;;;;;;;;;4870975;29;20073;-76
2022/12/24 07:12:42;;;;;;;12.77;5.85;;;;;;;;;;4870586;29;20052;-76
2022/12/24 07:15:10;;;;;;;12.82;5.93;;;;;;;;;;4861014;29;20105;-76
2022/12/24 07:17:38;;;;;;;9.30;4.85;;;;;;;;;;4866924;29;20308;-75
2022/12/24 07:20:06;;;;;;;12.00;4.85;;;;;;;;;;4863762;29;20037;-75
2022/12/24 07:22:34;;;;;;;6.68;3.70;;;;;;;;;;4848384;29;20052;-76
2022/12/24 07:25:01;;;;;;;7.22;4.35;;;;;;;;;;4833452;29;20080;-75
2022/12/24 07:27:30;;;;;;;7.95;4.32;;;;;;;;;;4845309;29;20044;-75
2022/12/24 07:29:57;;;;;;;12.32;4.30;;;;;;;;;;4861564;29;20533;-76
2022/12/24 07:32:24;;;;;;;10.77;3.95;;;;;;;;;;4864948;29;20076;-75
2022/12/24 07:34:52;;;;;;;6.25;3.42;;;;;;;;;;4842145;29;20049;-75
2022/12/24 07:37:22;;;;;;;5.38;3.72;;;;;;;;;;4860350;29;20056;-75
2022/12/24 07:39:50;;;;;;;8.25;4.38;;;;;;;;;;4865454;29;20060;-76
2022/12/24 07:42:18;;;;;;;10.73;4.70;;;;;;;;;;4839918;29;20064;-76
2022/12/24 07:44:45;;;;;;;12.32;5.68;;;;;;;;;;4857971;29;20045;-74
2022/12/24 07:47:12;;;;;;;12.65;6.63;;;;;;;;;;4860656;29;20049;-75
2022/12/24 07:49:39;;;;;;;13.07;7.50;;;;;;;;;;4860423;29;20157;-75
2022/12/24 07:52:07;;;;;;;10.98;6.50;;;;;;;;;;4861754;29;20049;-74
2022/12/24 07:54:35;;;;;;;16.50;5.38;;;;;;;;;;4843929;29;20169;-75
2022/12/24 07:57:02;;;;;;;10.75;4.50;;;;;;;;;;4860511;29;20093;-75
2022/12/24 07:59:30;;;;;;;7.63;4.15;;;;;;;;;;4869100;29;20056;-76
2022/12/24 08:01:57;;;;;;;11.43;5.72;;;;;;;;;;4866626;29;20506;-76
2022/12/24 08:04:24;;;;;;;12.80;5.65;;;;;;;;;;4838270;29;20199;-76
2022/12/24 08:06:52;;;;;;;7.72;5.32;;;;;;;;;;4870587;29;20048;-75
2022/12/24 08:09:20;;;;;;;7.30;4.80;;;;;;;;;;4867014;29;20057;-75
2022/12/24 08:11:47;;;;;;;7.13;4.20;;;;;;;;;;4844059;29;20046;-75
2022/12/24 08:14:18;;;;;;;5.00;3.47;;;;;;;;;;4850045;29;20046;-74
2022/12/24 08:16:46;;;;;;;11.45;4.47;;;;;;;;;;4857021;29;20083;-75
2022/12/24 08:19:13;;;;;;;6.78;3.72;;;;;;;;;;4846566;29;20053;-75
2022/12/24 08:21:41;;;;;;;6.85;3.38;;;;;;;;;;4828272;29;20057;-75
2022/12/24 08:24:08;;;;;;;7.53;3.90;;;;;;;;;;4865682;29;20041;-75
2022/12/24 08:26:36;;;;;;;9.10;4.22;;;;;;;;;;4874741;29;20045;-76
2022/12/24 08:29:04;;;;;;;8.25;4.10;;;;;;;;;;4843526;29;20041;-75
2022/12/24 08:31:35;;;;;;;7.85;4.88;;;;;;;;;;4864501;29;20425;-75
2022/12/24 08:34:04;;;;;;;12.32;5.78;;;;;;;;;;4846446;29;20462;-74
2022/12/24 08:36:34;;;;;;;12.15;5.68;;;;;;;;;;4865139;29;20108;-74
2022/12/24 08:39:02;;;;;;;14.98;5.22;;;;;;;;;;4869676;29;20112;-75
2022/12/24 08:41:30;;;;;;;8.68;4.90;;;;;;;;;;4864192;29;20053;-75
2022/12/24 08:43:58;;;;;;;10.95;5.03;;;;;;;;;;4856261;29;20534;-75
2022/12/24 08:46:25;;;;;;;12.85;4.72;;;;;;;;;;4856687;29;20046;-75
2022/12/24 08:48:53;;;;;;;11.50;5.72;;;;;;;;;;4825289;29;20045;-75
2022/12/24 08:51:20;;;;;;;11.25;5.55;;;;;;;;;;4862173;29;20589;-75
2022/12/24 08:53:48;;;;;;;9.50;6.72;;;;;;;;;;4854228;29;20052;-76
2022/12/24 08:56:15;;;;;;;17.13;6.15;;;;;;;;;;4839810;29;20054;-75
2022/12/24 08:58:43;;;;;;;10.82;5.13;;;;;;;;;;4856700;29;20060;-75
2022/12/24 09:01:14;;;;;;;9.75;5.25;;;;;;;;;;4841656;29;20109;-74
2022/12/24 09:03:42;;;;;;;10.82;5.05;;;;;;;;;;4867433;29;20060;-74
2022/12/24 09:06:10;;;;;;;17.20;5.65;;;;;;;;;;4857831;29;20045;-75
2022/12/24 09:08:38;;;;;;;12.63;5.40;;;;;;;;;;4868973;29;20049;-74
2022/12/24 09:11:05;;;;;;;8.43;4.80;;;;;;;;;;4855710;29;20080;-75
2022/12/24 09:13:33;;;;;;;10.38;5.40;;;;;;;;;;4860752;29;20049;-75
2022/12/24 09:16:00;;;;;;;9.60;6.07;;;;;;;;;;4855564;29;20057;-74
2022/12/24 09:18:28;;;;;;;7.82;5.43;;;;;;;;;;4852626;29;20136;-74
2022/12/24 09:20:59;;;;;;;8.95;5.65;;;;;;;;;;4871692;29;20052;-74
2022/12/24 09:23:27;;;;;;;10.75;5.68;;;;;;;;;;4868924;29;20053;-74
2022/12/24 09:25:54;;;;;;;11.13;6.38;;;;;;;;;;4874353;29;20101;-74
2022/12/24 09:28:22;;;;;;;14.38;6.55;;;;;;;;;;4857834;29;20048;-75
2022/12/24 09:31:01;;;;;;;11.10;6.13;;;;;;;;;;4874601;29;20053;-74
2022/12/24 09:33:29;;;;;;;11.25;6.50;;;;;;;;;;4857690;29;20051;-74
2022/12/24 09:35:57;;;;;;;12.95;6.32;;;;;;;;;;4872144;29;20188;-74
2022/12/24 09:38:24;;;;;;;12.18;7.88;;;;;;;;;;4872629;29;20504;-74
2022/12/24 09:40:52;;;;;;;15.32;7.50;;;;;;;;;;4872784;29;20053;-74
2022/12/24 09:43:21;;;;;;;12.38;6.35;;;;;;;;;;4873550;29;20068;-75
2022/12/24 09:46:03;;;;;;;9.05;6.30;;;;;;;;;;4873945;29;20053;-74
2022/12/24 09:48:33;;;;;;;7.75;5.63;;;;;;;;;;4874109;29;20053;-74
2022/12/24 09:51:11;;;;;;;14.15;5.45;;;;;;;;;;4874257;29;20072;-74
2022/12/24 09:53:44;;;;;;;11.55;5.18;;;;;;;;;;4873496;29;20053;-74
2022/12/24 09:56:14;;;;;;;14.60;5.53;;;;;;;;;;4874295;29;20485;-74
2022/12/24 09:58:47;;;;;;;11.75;4.38;;;;;;;;;;4872999;29;20105;-74
2022/12/24 10:01:16;;;;;;;10.23;5.22;;;;;;;;;;4871219;29;20053;-73
2022/12/24 10:03:43;;;;;;;11.20;4.70;;;;;;;;;;4849901;29;20045;-73
2022/12/24 10:06:23;;;;;;;9.10;4.20;;;;;;;;;;4854355;29;20052;-74
2022/12/24 10:09:15;;;;;;;9.70;3.92;;;;;;;;;;4853075;29;20045;-74
2022/12/24 10:11:47;;;;;;;12.85;4.70;;;;;;;;;;4873666;29;20045;-74
2022/12/24 10:14:18;;;;;;;11.95;3.03;;;;;;;;;;4868287;29;20045;-74
2022/12/24 10:16:48;;;;;;;10.73;3.58;;;;;;;;;;4866370;29;20510;-73
2022/12/24 10:19:21;;;;;;;7.93;2.63;;;;;;;;;;4873900;29;20108;-74
2022/12/24 10:21:48;;;;;;;9.05;3.08;;;;;;;;;;4860647;29;20049;-73
2022/12/24 10:24:20;;;;;;;6.65;2.72;;;;;;;;;;4853108;29;20455;-74
2022/12/24 10:26:47;;;;;;;;;;;;;;;;;;4854997;29;20052;-74
2022/12/24 10:29:19;;;;;;;5.63;2.10;;;;;;;;;;4855027;29;19939;-73
2022/12/24 10:31:55;;;;;;;5.25;1.83;;;;;;;;;;4856461;29;20659;-74
2022/12/24 10:34:24;;;;;;;7.00;2.17;;;;;;;;;;4871633;29;20053;-73
2022/12/24 10:36:52;;;;;;;8.07;2.45;;;;;;;;;;4842886;29;20140;-74
2022/12/24 10:39:21;;;;;;;9.68;2.80;;;;;;;;;;4841652;29;20628;-74
2022/12/24 10:41:51;;;;;;;8.45;3.33;;;;;;;;;;4862502;29;20144;-74
2022/12/24 10:44:20;;;;;;;9.68;2.33;;;;;;;;;;4872027;29;20067;-73
2022/12/24 10:46:48;;;;;;;7.80;1.77;;;;;;;;;;4867005;29;20033;-73
2022/12/24 10:49:35;;;;;;;6.35;2.08;;;;;;;;;;4850148;29;20046;-73
2022/12/24 10:52:05;;;;;;;3.10;1.30;;;;;;;;;;4861473;29;20041;-74
2022/12/24 10:54:38;;;;;;;5.37;2.10;;;;;;;;;;4870068;29;20092;-74
2022/12/24 10:57:22;;;;;;;7.45;2.20;;;;;;;;;;4864374;29;20789;-73
2022/12/24 10:59:51;;;;;;;11.20;2.30;;;;;;;;;;4857959;29;20097;-74
2022/12/24 11:02:24;;;;;;;6.93;2.03;;;;;;;;;;4853628;29;20056;-73
2022/12/24 11:04:52;;;;;;;9.05;2.22;;;;;;;;;;4862422;29;20041;-73
2022/12/24 11:07:21;;;;;;;5.22;2.63;;;;;;;;;;4846429;29;20052;-73
2022/12/24 11:09:57;;;;;;;9.70;2.70;;;;;;;;;;4857008;29;20575;-72
2022/12/24 11:12:29;;;;;;;4.53;2.10;;;;;;;;;;4848088;29;20045;-73
2022/12/24 11:15:06;;;;;;;12.38;2.70;;;;;;;;;;4850429;29;20124;-73
2022/12/24 11:17:33;;;;;;;7.28;2.90;;;;;;;;;;4856237;29;20056;-73
2022/12/24 11:20:02;;;;;;;10.02;3.08;;;;;;;;;;4841401;29;20073;-72
2022/12/24 11:22:32;;;;;;;11.68;4.07;;;;;;;;;;4858582;29;20050;-73
2022/12/24 11:25:00;;;;;;;9.52;3.13;;;;;;;;;;4841797;29;20132;-73
2022/12/24 11:27:30;;;;;;;6.72;2.53;;;;;;;;;;4872609;29;20073;-72
2022/12/24 11:30:23;;;;;;;5.45;2.20;;;;;;;;;;4870021;29;20047;-73
2022/12/24 11:32:59;;;;;;;7.78;2.40;;;;;;;;;;4866802;29;20144;-73
2022/12/24 11:35:28;;;;;;;8.63;2.45;;;;;;;;;;4854420;29;20060;-73
2022/12/24 11:38:02;;;;;;;11.32;3.30;;;;;;;;;;4853976;29;20054;-73
2022/12/24 11:40:40;;;;;;;9.77;3.03;;;;;;;;;;4841786;29;20072;-72
2022/12/24 11:43:43;;;;;;;7.55;2.40;;;;;;;;;;4871317;29;20672;-72
2022/12/24 11:46:15;;;;;;;8.32;2.90;;;;;;;;;;4852856;29;20107;-72
2022/12/24 11:48:43;;;;;;;9.85;2.50;;;;;;;;;;4864459;29;20049;-71
2022/12/24 11:51:21;;;;;;;8.18;2.08;;;;;;;;;;4855667;29;20045;-71
2022/12/24 11:54:04;;;;;;;8.60;3.15;;;;;;;;;;4873064;29;20049;-71
2022/12/24 11:56:40;;;;;;;11.07;2.40;;;;;;;;;;4872808;29;20140;-71
2022/12/24 11:59:12;;;;;;;21.85;11.43;;;;;;;;;;4856984;29;20528;-71
2022/12/24 12:01:44;;;;;;;12.85;5.10;;;;;;;;;;4862786;29;20049;-71
2022/12/24 12:04:17;;;;;;;8.98;3.90;;;;;;;;;;4860519;29;20052;-71
2022/12/24 12:06:45;;;;;;;11.80;5.65;;;;;;;;;;4862074;29;20735;-71
2022/12/24 12:09:24;;;;;;;33.67;19.48;;;;;;;;;;4872434;29;20060;-70
2022/12/24 12:11:54;;;;;;;24.95;14.68;;;;;;;;;;4871214;29;20055;-70
2022/12/24 12:14:25;;;;;;;18.15;11.13;;;;;;;;;;4871307;29;20591;-70
2022/12/24 12:17:00;;;;;;;13.23;8.15;;;;;;;;;;4858843;29;20513;-71
2022/12/24 12:19:30;;;;;;;3.85;1.63;;;;;;;;;;4870684;29;20050;-70
2022/12/24 12:21:58;;;;;;;6.15;3.28;;;;;;;;;;4874362;29;20517;-70
2022/12/24 12:24:28;;;;;;;8.95;3.63;;;;;;;;;;4850892;29;20048;-71
2022/12/24 12:27:25;;;;;;;5.20;4.80;;;;;;;;;;4867309;29;20075;-70
2022/12/24 12:29:56;;;;;;;3.75;1.20;;;;;;;;;;4724359;23;20055;-90
2022/12/24 12:32:24;;;;;;;;;;;;;;;;;;4845887;29;20045;-90
2022/12/24 12:34:51;;;;;;;5.13;2.80;;;;;;;;;;4864750;29;19924;-89
2022/12/24 12:37:23;;;;;;;186.32;168.52;;;;;;;;;;4849901;29;20065;-90
2022/12/24 12:39:55;;;;;;;3.50;2.17;;;;;;;;;;4839956;29;20420;-88
2022/12/24 12:42:30;;;;;;;2.38;1.13;;;;;;;;;;4862883;29;20053;-89
2022/12/24 12:45:00;;;;;;;3.60;1.52;;;;;;;;;;4834771;29;20130;-88
2022/12/24 12:47:40;;;;;;;5.30;1.52;;;;;;;;;;4880947;29;20048;-88
2022/12/24 12:50:14;;;;;;;3.13;1.58;;;;;;;;;;4865163;29;20050;-89
2022/12/24 12:52:48;;;;;;;2.30;1.33;;;;;;;;;;4865845;29;20044;-87
2022/12/24 12:55:15;;;;;;;6.35;3.28;;;;;;;;;;4850651;29;20072;-87
2022/12/24 12:57:54;;;;;;;1.77;1.30;;;;;;;;;;4842992;29;20026;-87
2022/12/24 13:00:22;;;;;;;3.17;1.52;;;;;;;;;;4883809;29;20030;-87
2022/12/24 13:03:02;;;;;;;3.23;1.57;;;;;;;;;;4871410;29;20037;-89
2022/12/24 13:05:40;;;;;;;0.85;0.82;;;;;;;;;;4848349;29;20610;-89
2022/12/24 13:08:23;;;;;;;2.67;2.45;;;;;;;;;;4836950;29;20065;-89
2022/12/24 13:11:14;;;;;;;3.47;1.42;;;;;;;;;;4853855;29;20045;-88
2022/12/24 13:13:51;;;;;;;4.75;1.35;;;;;;;;;;4828099;29;20084;-88
2022/12/24 13:16:37;;;;;;;44.70;40.85;;;;;;;;;;4834949;29;20140;-89
2022/12/24 13:19:24;;;;;;;1.98;1.40;;;;;;;;;;4858285;29;20057;-89
2022/12/24 13:21:54;;;;;;;3.40;1.50;;;;;;;;;;4816117;29;20045;-89
2022/12/24 13:24:30;;;;;;;7.47;2.55;;;;;;;;;;4813267;29;20049;-88
2022/12/24 13:27:21;;;;;;;3.28;1.55;;;;;;;;;;4845207;29;20569;-90
2022/12/24 13:29:56;;;;;;;2.58;1.65;;;;;;;;;;4823935;29;20049;-89
2022/12/24 13:32:39;;;;;;;5.53;5.00;;;;;;;;;;4839493;29;20049;-87
2022/12/24 13:35:19;;;;;;;31.85;28.50;;;;;;;;;;4844066;29;20053;-89
2022/12/24 13:37:50;;;;;;;2.95;1.10;;;;;;;;;;4858264;29;20078;-89
2022/12/24 13:40:18;;;;;;;;;;;;;;;;;;4831438;29;20053;-88
2022/12/24 13:42:58;;;;;;;2.20;1.33;;;;;;;;;;4863993;29;19928;-88
2022/12/24 13:45:31;;;;;;;3.20;1.30;;;;;;;;;;4861501;29;20056;-89
2022/12/24 13:48:08;;;;;;;2.65;1.90;;;;;;;;;;4842403;29;20052;-88
2022/12/24 13:50:53;;;;;;;2.85;1.60;;;;;;;;;;4837097;29;20630;-88
2022/12/24 13:53:31;;;;;;;5.07;2.33;;;;;;;;;;4859025;29;20045;-88
2022/12/24 13:56:16;;;;;;;3.80;2.13;;;;;;;;;;4828993;29;20441;-87
2022/12/24 13:58:46;;;;;;;6.50;4.45;;;;;;;;;;4850240;29;20094;-89
2022/12/24 14:01:19;;;;;;;3.92;1.58;;;;;;;;;;4829479;29;20569;-88
2022/12/24 14:03:58;;;;;;;5.40;2.60;;;;;;;;;;4855281;29;20136;-88
2022/12/24 14:06:28;;;;;;;2.97;1.80;;;;;;;;;;4860455;29;20057;-88
2022/12/24 14:08:58;;;;;;;3.88;2.35;;;;;;;;;;4843721;29;20402;-88
2022/12/24 14:11:26;;;;;;;7.63;2.03;;;;;;;;;;4859957;29;20060;-87
2022/12/24 14:14:03;;;;;;;2.33;1.40;;;;;;;;;;4860218;29;20054;-88
2022/12/24 14:16:41;;;;;;;6.07;3.30;;;;;;;;;;4859924;29;20196;-88
2022/12/24 14:19:19;;;;;;;6.55;4.22;;;;;;;;;;4828303;29;20058;-88
2022/12/24 14:22:04;;;;;;;2.15;1.52;;;;;;;;;;4857700;29;20045;-88
2022/12/24 14:24:36;;;;;;;5.50;3.30;;;;;;;;;;4840353;29;20045;-88
2022/12/24 14:27:10;;;;;;;4.93;2.65;;;;;;;;;;4844210;29;20065;-88
2022/12/24 14:29:51;;;;;;;7.93;5.18;;;;;;;;;;4842855;29;20045;-88
2022/12/24 14:32:21;;;;;;;4.80;1.40;;;;;;;;;;4858160;29;20045;-88
2022/12/24 14:35:04;;;;;;;16.75;10.27;;;;;;;;;;4878872;29;20049;-86
2022/12/24 14:37:32;;;;;;;22.30;11.55;;;;;;;;;;4879044;29;20045;-86
2022/12/24 14:40:01;;;;;;;11.75;6.57;;;;;;;;;;4862932;29;20040;-86
2022/12/24 14:42:33;;;;;;;5.10;3.35;;;;;;;;;;4866859;29;20045;-87
2022/12/24 14:45:13;;;;;;;14.10;7.20;;;;;;;;;;4876634;29;20049;-86
2022/12/24 14:47:56;;;;;;;14.68;9.18;;;;;;;;;;4875214;29;20065;-86
2022/12/24 14:50:32;;;;;;;23.15;14.93;;;;;;;;;;4864641;29;20053;-86
2022/12/24 14:53:03;;;;;;;8.88;3.60;;;;;;;;;;4864572;29;20068;-86
2022/12/24 14:55:40;;;;;;;10.45;6.45;;;;;;;;;;4872509;29;20210;-88
2022/12/24 14:58:16;;;;;;;10.15;6.15;;;;;;;;;;4871033;29;20053;-86
2022/12/24 15:00:43;;;;;;;11.60;6.97;;;;;;;;;;4860323;29;20034;-86
2022/12/24 15:03:15;;;;;;;7.97;5.10;;;;;;;;;;4875217;29;20022;-87
2022/12/24 15:05:43;;;;;;;7.20;4.85;;;;;;;;;;4859864;29;20065;-87
2022/12/24 15:08:18;;;;;;;9.52;4.55;;;;;;;;;;4878306;29;20069;-87
2022/12/24 15:10:53;;;;;;;10.40;5.75;;;;;;;;;;4861640;29;20419;-88